sensor_id;sensor_type;location;lat;lon;timestamp;temperature;humidity
2539;DHT22;1280;49.760;9.664;2023-07-13T00:00:12;23.40;61.70
2539;DHT22;1280;49.760;9.664;2023-07-13T00:02:45;23.40;61.60
2539;DHT22;1280;49.760;9.664;2023-07-13T00:05:13;23.30;61.60
2539;DHT22;1280;49.760;9.664;2023-07-13T00:07:50;23.30;61.70
2539;DHT22;1280;49.760;9.664;2023-07-13T00:10:22;23.30;61.70
2539;DHT22;1280;49.760;9.664;2023-07-13T00:12:50;23.20;61.90
2539;DHT22;1280;49.760;9.664;2023-07-13T00:15:25;23.20;61.90
2539;DHT22;1280;49.760;9.664;2023-07-13T00:17:55;23.20;61.90
2539;DHT22;1280;49.760;9.664;2023-07-13T00:20:24;23.20;62.00
2539;DHT22;1280;49.760;9.664;2023-07-13T00:22:55;23.10;62.00
2539;DHT22;1280;49.760;9.664;2023-07-13T00:25:27;23.00;62.00
2539;DHT22;1280;49.760;9.664;2023-07-13T00:27:55;23.00;62.00
2539;DHT22;1280;49.760;9.664;2023-07-13T00:30:26;22.90;62.00
2539;DHT22;1280;49.760;9.664;2023-07-13T00:33:04;22.80;62.10
2539;DHT22;1280;49.760;9.664;2023-07-13T00:35:45;22.80;62.20
2539;DHT22;1280;49.760;9.664;2023-07-13T00:38:17;22.70;62.30
2539;DHT22;1280;49.760;9.664;2023-07-13T00:40:46;22.70;62.30
2539;DHT22;1280;49.760;9.664;2023-07-13T00:43:17;22.60;62.40
2539;DHT22;1280;49.760;9.664;2023-07-13T00:46:15;22.60;62.50
2539;DHT22;1280;49.760;9.664;2023-07-13T00:48:48;22.60;62.50
2539;DHT22;1280;49.760;9.664;2023-07-13T00:51:28;22.50;62.60
2539;DHT22;1280;49.760;9.664;2023-07-13T00:54:04;22.50;62.60
2539;DHT22;1280;49.760;9.664;2023-07-13T00:56:33;22.40;62.80
2539;DHT22;1280;49.760;9.664;2023-07-13T00:59:06;22.40;62.80
2539;DHT22;1280;49.760;9.664;2023-07-13T01:01:43;22.40;62.60
2539;DHT22;1280;49.760;9.664;2023-07-13T01:04:12;22.40;62.60
2539;DHT22;1280;49.760;9.664;2023-07-13T01:06:41;22.40;62.60
2539;DHT22;1280;49.760;9.664;2023-07-13T01:09:14;22.40;62.60
2539;DHT22;1280;49.760;9.664;2023-07-13T01:11:44;22.40;62.60
2539;DHT22;1280;49.760;9.664;2023-07-13T01:14:14;22.30;62.50
2539;DHT22;1280;49.760;9.664;2023-07-13T01:16:45;22.30;62.50
2539;DHT22;1280;49.760;9.664;2023-07-13T01:19:26;22.30;62.40
2539;DHT22;1280;49.760;9.664;2023-07-13T01:22:05;22.30;62.30
2539;DHT22;1280;49.760;9.664;2023-07-13T01:24:35;22.30;62.30
2539;DHT22;1280;49.760;9.664;2023-07-13T01:27:05;22.20;62.30
2539;DHT22;1280;49.760;9.664;2023-07-13T01:29:36;22.20;62.30
2539;DHT22;1280;49.760;9.664;2023-07-13T01:32:19;22.20;62.30
2539;DHT22;1280;49.760;9.664;2023-07-13T01:34:52;22.20;62.20
2539;DHT22;1280;49.760;9.664;2023-07-13T01:37:23;22.20;62.20
2539;DHT22;1280;49.760;9.664;2023-07-13T01:39:51;22.20;62.10
2539;DHT22;1280;49.760;9.664;2023-07-13T01:42:25;22.20;62.00
2539;DHT22;1280;49.760;9.664;2023-07-13T01:44:53;22.20;61.90
2539;DHT22;1280;49.760;9.664;2023-07-13T01:47:25;22.20;61.90
2539;DHT22;1280;49.760;9.664;2023-07-13T01:49:55;22.10;61.80
2539;DHT22;1280;49.760;9.664;2023-07-13T01:52:28;22.10;61.80
2539;DHT22;1280;49.760;9.664;2023-07-13T01:54:58;22.10;61.80
2539;DHT22;1280;49.760;9.664;2023-07-13T01:57:26;22.00;61.80
2539;DHT22;1280;49.760;9.664;2023-07-13T01:59:57;22.00;61.80
2539;DHT22;1280;49.760;9.664;2023-07-13T02:02:26;22.00;61.90
2539;DHT22;1280;49.760;9.664;2023-07-13T02:04:54;21.90;61.90
2539;DHT22;1280;49.760;9.664;2023-07-13T02:07:22;21.90;61.90
2539;DHT22;1280;49.760;9.664;2023-07-13T02:09:53;21.90;61.90
2539;DHT22;1280;49.760;9.664;2023-07-13T02:12:23;21.90;61.90
2539;DHT22;1280;49.760;9.664;2023-07-13T02:14:53;21.80;61.90
2539;DHT22;1280;49.760;9.664;2023-07-13T02:17:25;21.80;61.80
2539;DHT22;1280;49.760;9.664;2023-07-13T02:19:59;21.80;61.80
2539;DHT22;1280;49.760;9.664;2023-07-13T02:22:28;21.70;61.80
2539;DHT22;1280;49.760;9.664;2023-07-13T02:24:58;21.70;61.80
2539;DHT22;1280;49.760;9.664;2023-07-13T02:27:32;21.70;61.80
2539;DHT22;1280;49.760;9.664;2023-07-13T02:30:00;21.70;61.90
2539;DHT22;1280;49.760;9.664;2023-07-13T02:32:31;21.60;61.90
2539;DHT22;1280;49.760;9.664;2023-07-13T02:35:00;21.60;62.00
2539;DHT22;1280;49.760;9.664;2023-07-13T02:37:29;21.60;62.00
2539;DHT22;1280;49.760;9.664;2023-07-13T02:40:00;21.60;62.00
2539;DHT22;1280;49.760;9.664;2023-07-13T02:42:29;21.60;62.00
2539;DHT22;1280;49.760;9.664;2023-07-13T02:45:00;21.60;62.00
2539;DHT22;1280;49.760;9.664;2023-07-13T02:47:28;21.50;62.00
2539;DHT22;1280;49.760;9.664;2023-07-13T02:49:59;21.40;61.90
2539;DHT22;1280;49.760;9.664;2023-07-13T02:52:29;21.40;62.00
2539;DHT22;1280;49.760;9.664;2023-07-13T02:54:59;21.30;62.10
2539;DHT22;1280;49.760;9.664;2023-07-13T02:57:28;21.30;62.20
2539;DHT22;1280;49.760;9.664;2023-07-13T03:00:02;21.30;62.30
2539;DHT22;1280;49.760;9.664;2023-07-13T03:02:34;21.30;62.40
2539;DHT22;1280;49.760;9.664;2023-07-13T03:05:10;21.30;62.40
2539;DHT22;1280;49.760;9.664;2023-07-13T03:07:43;21.20;62.40
2539;DHT22;1280;49.760;9.664;2023-07-13T03:10:13;21.20;62.40
2539;DHT22;1280;49.760;9.664;2023-07-13T03:12:46;21.20;62.60
2539;DHT22;1280;49.760;9.664;2023-07-13T03:15:21;21.10;62.60
2539;DHT22;1280;49.760;9.664;2023-07-13T03:17:51;21.10;62.60
2539;DHT22;1280;49.760;9.664;2023-07-13T03:20:20;21.10;62.70
2539;DHT22;1280;49.760;9.664;2023-07-13T03:22:48;21.00;62.80
2539;DHT22;1280;49.760;9.664;2023-07-13T03:25:19;21.00;62.90
2539;DHT22;1280;49.760;9.664;2023-07-13T03:27:48;20.90;62.90
2539;DHT22;1280;49.760;9.664;2023-07-13T03:30:19;20.90;63.00
2539;DHT22;1280;49.760;9.664;2023-07-13T03:32:49;20.90;63.00
2539;DHT22;1280;49.760;9.664;2023-07-13T03:35:18;20.90;63.20
2539;DHT22;1280;49.760;9.664;2023-07-13T03:37:46;20.80;63.10
2539;DHT22;1280;49.760;9.664;2023-07-13T03:40:25;20.60;63.10
2539;DHT22;1280;49.760;9.664;2023-07-13T03:43:01;20.50;63.40
2539;DHT22;1280;49.760;9.664;2023-07-13T03:45:37;20.40;63.60
2539;DHT22;1280;49.760;9.664;2023-07-13T03:48:15;20.40;63.80
2539;DHT22;1280;49.760;9.664;2023-07-13T03:50:50;20.40;63.90
2539;DHT22;1280;49.760;9.664;2023-07-13T03:53:18;20.40;64.10
2539;DHT22;1280;49.760;9.664;2023-07-13T03:55:51;20.40;64.10
2539;DHT22;1280;49.760;9.664;2023-07-13T03:58:29;20.40;64.20
2539;DHT22;1280;49.760;9.664;2023-07-13T04:01:05;20.40;64.40
2539;DHT22;1280;49.760;9.664;2023-07-13T04:03:34;20.50;64.40
2539;DHT22;1280;49.760;9.664;2023-07-13T04:06:06;20.50;64.50
2539;DHT22;1280;49.760;9.664;2023-07-13T04:08:36;20.50;64.50
2539;DHT22;1280;49.760;9.664;2023-07-13T04:11:06;20.50;64.50
2539;DHT22;1280;49.760;9.664;2023-07-13T04:13:37;20.50;64.70
2539;DHT22;1280;49.760;9.664;2023-07-13T04:16:14;20.60;64.70
2539;DHT22;1280;49.760;9.664;2023-07-13T04:18:47;20.60;64.80
2539;DHT22;1280;49.760;9.664;2023-07-13T04:21:16;20.60;64.90
2539;DHT22;1280;49.760;9.664;2023-07-13T04:23:45;20.70;64.90
2539;DHT22;1280;49.760;9.664;2023-07-13T04:26:16;20.70;65.00
2539;DHT22;1280;49.760;9.664;2023-07-13T04:28:44;20.80;65.10
2539;DHT22;1280;49.760;9.664;2023-07-13T04:31:16;20.80;65.20
2539;DHT22;1280;49.760;9.664;2023-07-13T04:33:44;20.90;65.20
2539;DHT22;1280;49.760;9.664;2023-07-13T04:36:15;21.10;65.30
2539;DHT22;1280;49.760;9.664;2023-07-13T04:38:43;21.20;65.30
2539;DHT22;1280;49.760;9.664;2023-07-13T04:41:12;21.40;65.20
2539;DHT22;1280;49.760;9.664;2023-07-13T04:43:42;21.60;65.10
2539;DHT22;1280;49.760;9.664;2023-07-13T04:46:13;21.70;64.80
2539;DHT22;1280;49.760;9.664;2023-07-13T04:48:42;21.90;64.60
2539;DHT22;1280;49.760;9.664;2023-07-13T04:51:10;22.00;64.30
2539;DHT22;1280;49.760;9.664;2023-07-13T04:53:38;22.00;64.10
2539;DHT22;1280;49.760;9.664;2023-07-13T04:56:06;22.00;64.10
2539;DHT22;1280;49.760;9.664;2023-07-13T04:58:34;22.00;64.10
2539;DHT22;1280;49.760;9.664;2023-07-13T05:01:05;21.90;64.10
2539;DHT22;1280;49.760;9.664;2023-07-13T05:03:38;21.90;64.10
2539;DHT22;1280;49.760;9.664;2023-07-13T05:06:08;21.80;64.20
2539;DHT22;1280;49.760;9.664;2023-07-13T05:08:37;21.80;64.20
2539;DHT22;1280;49.760;9.664;2023-07-13T05:11:05;21.80;64.20
2539;DHT22;1280;49.760;9.664;2023-07-13T05:13:35;21.80;64.20
2539;DHT22;1280;49.760;9.664;2023-07-13T05:16:05;21.80;64.20
2539;DHT22;1280;49.760;9.664;2023-07-13T05:18:34;21.80;64.40
2539;DHT22;1280;49.760;9.664;2023-07-13T05:21:04;22.00;64.50
2539;DHT22;1280;49.760;9.664;2023-07-13T05:23:33;22.10;64.60
2539;DHT22;1280;49.760;9.664;2023-07-13T05:26:02;22.30;64.50
2539;DHT22;1280;49.760;9.664;2023-07-13T05:28:35;22.50;64.40
2539;DHT22;1280;49.760;9.664;2023-07-13T05:31:04;22.70;64.50
2539;DHT22;1280;49.760;9.664;2023-07-13T05:33:33;22.90;64.60
2539;DHT22;1280;49.760;9.664;2023-07-13T05:36:01;23.20;64.80
2539;DHT22;1280;49.760;9.664;2023-07-13T05:38:29;23.50;64.90
2539;DHT22;1280;49.760;9.664;2023-07-13T05:40:57;23.90;64.70
2539;DHT22;1280;49.760;9.664;2023-07-13T05:43:27;24.60;64.10
2539;DHT22;1280;49.760;9.664;2023-07-13T05:45:56;25.60;62.50
2539;DHT22;1280;49.760;9.664;2023-07-13T05:48:26;26.40;60.80
2539;DHT22;1280;49.760;9.664;2023-07-13T05:50:54;26.90;59.90
2539;DHT22;1280;49.760;9.664;2023-07-13T05:53:22;27.60;58.80
2539;DHT22;1280;49.760;9.664;2023-07-13T05:55:50;28.40;57.60
2539;DHT22;1280;49.760;9.664;2023-07-13T05:58:23;29.20;56.30
2539;DHT22;1280;49.760;9.664;2023-07-13T06:01:00;29.70;54.70
2539;DHT22;1280;49.760;9.664;2023-07-13T06:03:30;30.10;53.70
2539;DHT22;1280;49.760;9.664;2023-07-13T06:05:58;30.40;53.00
2539;DHT22;1280;49.760;9.664;2023-07-13T06:08:28;30.80;52.50
2539;DHT22;1280;49.760;9.664;2023-07-13T06:11:06;31.10;51.60
2539;DHT22;1280;49.760;9.664;2023-07-13T06:13:35;31.60;50.40
2539;DHT22;1280;49.760;9.664;2023-07-13T06:16:04;32.40;49.70
2539;DHT22;1280;49.760;9.664;2023-07-13T06:18:34;32.80;48.20
2539;DHT22;1280;49.760;9.664;2023-07-13T06:21:06;32.70;47.40
2539;DHT22;1280;49.760;9.664;2023-07-13T06:23:38;32.20;47.40
2539;DHT22;1280;49.760;9.664;2023-07-13T06:26:12;31.60;47.80
2539;DHT22;1280;49.760;9.664;2023-07-13T06:28:40;31.20;47.60
2539;DHT22;1280;49.760;9.664;2023-07-13T06:31:11;30.50;47.90
2539;DHT22;1280;49.760;9.664;2023-07-13T06:33:41;29.90;47.90
2539;DHT22;1280;49.760;9.664;2023-07-13T06:36:20;29.10;48.20
2539;DHT22;1280;49.760;9.664;2023-07-13T06:38:49;28.20;48.60
2539;DHT22;1280;49.760;9.664;2023-07-13T06:41:17;27.40;49.40
2539;DHT22;1280;49.760;9.664;2023-07-13T06:44:06;26.80;50.00
2539;DHT22;1280;49.760;9.664;2023-07-13T06:46:34;26.20;50.70
2539;DHT22;1280;49.760;9.664;2023-07-13T06:49:08;25.70;51.20
2539;DHT22;1280;49.760;9.664;2023-07-13T06:51:36;25.40;51.70
2539;DHT22;1280;49.760;9.664;2023-07-13T06:54:04;25.10;52.20
2539;DHT22;1280;49.760;9.664;2023-07-13T07:00:17;24.70;53.00
2539;DHT22;1280;49.760;9.664;2023-07-13T07:02:45;24.50;53.20
2539;DHT22;1280;49.760;9.664;2023-07-13T07:05:15;24.30;53.70
2539;DHT22;1280;49.760;9.664;2023-07-13T07:07:47;24.10;53.80
2539;DHT22;1280;49.760;9.664;2023-07-13T07:10:15;24.00;53.90
2539;DHT22;1280;49.760;9.664;2023-07-13T07:12:43;23.90;54.10
2539;DHT22;1280;49.760;9.664;2023-07-13T07:15:13;23.90;54.30
2539;DHT22;1280;49.760;9.664;2023-07-13T07:17:40;23.90;54.50
2539;DHT22;1280;49.760;9.664;2023-07-13T07:20:10;23.80;54.60
2539;DHT22;1280;49.760;9.664;2023-07-13T07:22:39;23.80;54.60
2539;DHT22;1280;49.760;9.664;2023-07-13T07:25:07;23.90;54.60
2539;DHT22;1280;49.760;9.664;2023-07-13T07:27:35;23.80;54.70
2539;DHT22;1280;49.760;9.664;2023-07-13T07:30:07;23.80;54.70
2539;DHT22;1280;49.760;9.664;2023-07-13T07:32:38;23.80;54.80
2539;DHT22;1280;49.760;9.664;2023-07-13T07:35:09;23.80;54.90
2539;DHT22;1280;49.760;9.664;2023-07-13T07:37:56;23.80;54.80
2539;DHT22;1280;49.760;9.664;2023-07-13T07:40:24;23.80;54.80
2539;DHT22;1280;49.760;9.664;2023-07-13T07:42:56;23.80;54.80
2539;DHT22;1280;49.760;9.664;2023-07-13T07:45:24;23.90;54.70
2539;DHT22;1280;49.760;9.664;2023-07-13T07:47:52;23.90;54.60
2539;DHT22;1280;49.760;9.664;2023-07-13T07:50:21;23.80;54.50
2539;DHT22;1280;49.760;9.664;2023-07-13T07:52:49;23.80;54.70
2539;DHT22;1280;49.760;9.664;2023-07-13T07:55:19;23.80;54.80
2539;DHT22;1280;49.760;9.664;2023-07-13T07:57:50;23.90;54.80
2539;DHT22;1280;49.760;9.664;2023-07-13T08:00:21;23.90;54.80
2539;DHT22;1280;49.760;9.664;2023-07-13T08:02:52;24.00;54.70
2539;DHT22;1280;49.760;9.664;2023-07-13T08:05:23;24.00;54.60
2539;DHT22;1280;49.760;9.664;2023-07-13T08:08:08;24.10;54.60
2539;DHT22;1280;49.760;9.664;2023-07-13T08:10:37;24.10;54.20
2539;DHT22;1280;49.760;9.664;2023-07-13T08:13:06;24.10;54.00
2539;DHT22;1280;49.760;9.664;2023-07-13T08:15:38;24.20;54.00
2539;DHT22;1280;49.760;9.664;2023-07-13T08:18:07;24.20;53.90
2539;DHT22;1280;49.760;9.664;2023-07-13T08:20:37;24.10;53.90
2539;DHT22;1280;49.760;9.664;2023-07-13T08:23:10;24.10;54.00
2539;DHT22;1280;49.760;9.664;2023-07-13T08:25:39;24.10;53.90
2539;DHT22;1280;49.760;9.664;2023-07-13T08:28:08;24.10;53.90
2539;DHT22;1280;49.760;9.664;2023-07-13T08:30:36;24.20;53.90
2539;DHT22;1280;49.760;9.664;2023-07-13T08:33:04;24.20;53.90
2539;DHT22;1280;49.760;9.664;2023-07-13T08:35:32;24.20;54.00
2539;DHT22;1280;49.760;9.664;2023-07-13T08:38:00;24.20;54.10
2539;DHT22;1280;49.760;9.664;2023-07-13T08:40:28;24.20;53.90
2539;DHT22;1280;49.760;9.664;2023-07-13T08:42:58;24.20;53.90
2539;DHT22;1280;49.760;9.664;2023-07-13T08:45:32;24.10;53.80
2539;DHT22;1280;49.760;9.664;2023-07-13T08:48:08;24.10;53.90
2539;DHT22;1280;49.760;9.664;2023-07-13T08:50:51;24.10;54.10
2539;DHT22;1280;49.760;9.664;2023-07-13T08:53:30;24.10;53.90
2539;DHT22;1280;49.760;9.664;2023-07-13T08:56:01;24.20;53.90
2539;DHT22;1280;49.760;9.664;2023-07-13T08:58:31;24.10;53.90
2539;DHT22;1280;49.760;9.664;2023-07-13T09:01:09;24.20;53.80
2539;DHT22;1280;49.760;9.664;2023-07-13T09:03:45;24.30;53.80
2539;DHT22;1280;49.760;9.664;2023-07-13T09:06:18;24.40;53.90
2539;DHT22;1280;49.760;9.664;2023-07-13T09:08:53;24.40;53.70
2539;DHT22;1280;49.760;9.664;2023-07-13T09:11:35;24.40;53.50
2539;DHT22;1280;49.760;9.664;2023-07-13T09:14:31;24.50;53.50
2539;DHT22;1280;49.760;9.664;2023-07-13T09:17:03;24.50;53.50
2539;DHT22;1280;49.760;9.664;2023-07-13T09:19:33;24.50;53.40
2539;DHT22;1280;49.760;9.664;2023-07-13T09:22:04;24.60;53.50
2539;DHT22;1280;49.760;9.664;2023-07-13T09:24:37;24.70;53.50
2539;DHT22;1280;49.760;9.664;2023-07-13T09:27:14;24.80;53.20
2539;DHT22;1280;49.760;9.664;2023-07-13T09:29:50;24.70;53.00
2539;DHT22;1280;49.760;9.664;2023-07-13T09:32:21;24.70;53.20
2539;DHT22;1280;49.760;9.664;2023-07-13T09:34:52;24.80;53.30
2539;DHT22;1280;49.760;9.664;2023-07-13T09:37:30;24.80;53.20
2539;DHT22;1280;49.760;9.664;2023-07-13T09:40:01;24.80;53.10
2539;DHT22;1280;49.760;9.664;2023-07-13T09:42:32;24.90;53.20
2539;DHT22;1280;49.760;9.664;2023-07-13T09:45:02;24.90;53.10
2539;DHT22;1280;49.760;9.664;2023-07-13T09:47:38;24.90;53.00
2539;DHT22;1280;49.760;9.664;2023-07-13T09:50:14;24.90;52.90
2539;DHT22;1280;49.760;9.664;2023-07-13T09:52:45;24.90;52.90
2539;DHT22;1280;49.760;9.664;2023-07-13T09:55:25;24.90;53.00
2539;DHT22;1280;49.760;9.664;2023-07-13T09:57:53;24.90;52.90
2539;DHT22;1280;49.760;9.664;2023-07-13T10:00:25;25.00;53.10
2539;DHT22;1280;49.760;9.664;2023-07-13T10:03:02;24.90;52.90
2539;DHT22;1280;49.760;9.664;2023-07-13T10:05:41;24.90;52.80
2539;DHT22;1280;49.760;9.664;2023-07-13T10:08:21;24.80;52.80
2539;DHT22;1280;49.760;9.664;2023-07-13T10:10:53;24.80;52.90
2539;DHT22;1280;49.760;9.664;2023-07-13T10:13:37;24.90;53.00
2539;DHT22;1280;49.760;9.664;2023-07-13T10:16:10;24.90;53.00
2539;DHT22;1280;49.760;9.664;2023-07-13T10:18:42;24.90;53.00
2539;DHT22;1280;49.760;9.664;2023-07-13T10:21:14;25.00;53.00
2539;DHT22;1280;49.760;9.664;2023-07-13T10:23:48;25.00;53.00
2539;DHT22;1280;49.760;9.664;2023-07-13T10:26:21;25.10;52.90
2539;DHT22;1280;49.760;9.664;2023-07-13T10:28:53;25.20;52.50
2539;DHT22;1280;49.760;9.664;2023-07-13T10:31:23;25.10;52.30
2539;DHT22;1280;49.760;9.664;2023-07-13T10:33:52;25.10;52.10
2539;DHT22;1280;49.760;9.664;2023-07-13T10:36:28;25.00;52.20
2539;DHT22;1280;49.760;9.664;2023-07-13T10:39:00;25.10;52.30
2539;DHT22;1280;49.760;9.664;2023-07-13T10:41:32;25.10;52.40
2539;DHT22;1280;49.760;9.664;2023-07-13T10:44:02;25.20;52.50
2539;DHT22;1280;49.760;9.664;2023-07-13T10:46:33;25.20;52.40
2539;DHT22;1280;49.760;9.664;2023-07-13T10:49:03;25.30;52.40
2539;DHT22;1280;49.760;9.664;2023-07-13T10:51:33;25.30;52.30
2539;DHT22;1280;49.760;9.664;2023-07-13T10:54:15;25.40;52.10
2539;DHT22;1280;49.760;9.664;2023-07-13T10:56:48;25.40;52.10
2539;DHT22;1280;49.760;9.664;2023-07-13T10:59:20;25.50;52.20
2539;DHT22;1280;49.760;9.664;2023-07-13T11:01:56;25.60;52.30
2539;DHT22;1280;49.760;9.664;2023-07-13T11:04:26;25.70;51.90
2539;DHT22;1280;49.760;9.664;2023-07-13T11:06:58;25.70;51.60
2539;DHT22;1280;49.760;9.664;2023-07-13T11:09:37;25.60;51.40
2539;DHT22;1280;49.760;9.664;2023-07-13T11:12:09;25.60;51.50
2539;DHT22;1280;49.760;9.664;2023-07-13T11:15:03;25.60;51.40
2539;DHT22;1280;49.760;9.664;2023-07-13T11:17:38;25.60;51.40
2539;DHT22;1280;49.760;9.664;2023-07-13T11:20:36;25.60;51.40
2539;DHT22;1280;49.760;9.664;2023-07-13T11:23:20;25.60;51.20
2539;DHT22;1280;49.760;9.664;2023-07-13T11:25:54;25.60;51.30
2539;DHT22;1280;49.760;9.664;2023-07-13T11:28:24;25.70;51.40
2539;DHT22;1280;49.760;9.664;2023-07-13T11:31:14;25.70;51.30
2539;DHT22;1280;49.760;9.664;2023-07-13T11:34:01;25.60;51.10
2539;DHT22;1280;49.760;9.664;2023-07-13T11:36:32;25.50;51.10
2539;DHT22;1280;49.760;9.664;2023-07-13T11:39:08;25.50;51.10
2539;DHT22;1280;49.760;9.664;2023-07-13T11:41:45;25.50;51.10
2539;DHT22;1280;49.760;9.664;2023-07-13T11:44:18;25.50;51.20
2539;DHT22;1280;49.760;9.664;2023-07-13T11:46:47;25.50;51.40
2539;DHT22;1280;49.760;9.664;2023-07-13T11:49:21;25.60;51.30
2539;DHT22;1280;49.760;9.664;2023-07-13T11:51:51;25.50;51.10
2539;DHT22;1280;49.760;9.664;2023-07-13T11:54:26;25.50;51.10
2539;DHT22;1280;49.760;9.664;2023-07-13T11:56:57;25.50;51.20
2539;DHT22;1280;49.760;9.664;2023-07-13T11:59:28;25.60;51.30
2539;DHT22;1280;49.760;9.664;2023-07-13T12:01:58;25.60;51.40
2539;DHT22;1280;49.760;9.664;2023-07-13T12:04:32;25.60;51.60
2539;DHT22;1280;49.760;9.664;2023-07-13T12:07:06;25.70;51.50
2539;DHT22;1280;49.760;9.664;2023-07-13T12:09:35;25.80;51.20
2539;DHT22;1280;49.760;9.664;2023-07-13T12:12:10;25.80;51.00
2539;DHT22;1280;49.760;9.664;2023-07-13T12:14:39;25.80;50.80
2539;DHT22;1280;49.760;9.664;2023-07-13T12:17:15;25.80;50.70
2539;DHT22;1280;49.760;9.664;2023-07-13T12:19:44;25.80;50.70
2539;DHT22;1280;49.760;9.664;2023-07-13T12:22:13;25.80;50.70
2539;DHT22;1280;49.760;9.664;2023-07-13T12:24:43;25.80;50.90
2539;DHT22;1280;49.760;9.664;2023-07-13T12:27:19;25.90;50.90
2539;DHT22;1280;49.760;9.664;2023-07-13T12:29:50;26.00;50.70
2539;DHT22;1280;49.760;9.664;2023-07-13T12:32:20;26.00;50.40
2539;DHT22;1280;49.760;9.664;2023-07-13T12:34:55;25.90;50.30
2539;DHT22;1280;49.760;9.664;2023-07-13T12:37:24;25.90;50.40
2539;DHT22;1280;49.760;9.664;2023-07-13T12:39:52;25.90;50.50
2539;DHT22;1280;49.760;9.664;2023-07-13T12:42:22;25.90;50.40
2539;DHT22;1280;49.760;9.664;2023-07-13T12:44:56;26.00;50.50
2539;DHT22;1280;49.760;9.664;2023-07-13T12:47:25;25.90;50.40
2539;DHT22;1280;49.760;9.664;2023-07-13T12:49:57;25.90;50.50
2539;DHT22;1280;49.760;9.664;2023-07-13T12:52:29;25.90;50.50
2539;DHT22;1280;49.760;9.664;2023-07-13T12:55:05;25.90;50.50
2539;DHT22;1280;49.760;9.664;2023-07-13T12:57:39;26.00;50.60
2539;DHT22;1280;49.760;9.664;2023-07-13T13:00:22;26.00;50.60
2539;DHT22;1280;49.760;9.664;2023-07-13T13:02:53;26.10;50.60
2539;DHT22;1280;49.760;9.664;2023-07-13T13:05:42;26.10;50.80
2539;DHT22;1280;49.760;9.664;2023-07-13T13:08:12;26.20;50.90
2539;DHT22;1280;49.760;9.664;2023-07-13T13:10:40;26.20;50.90
2539;DHT22;1280;49.760;9.664;2023-07-13T13:13:09;26.20;50.70
2539;DHT22;1280;49.760;9.664;2023-07-13T13:15:37;26.20;50.50
2539;DHT22;1280;49.760;9.664;2023-07-13T13:18:14;26.10;50.40
2539;DHT22;1280;49.760;9.664;2023-07-13T13:20:44;26.10;50.30
2539;DHT22;1280;49.760;9.664;2023-07-13T13:23:13;26.10;50.30
2539;DHT22;1280;49.760;9.664;2023-07-13T13:25:45;26.10;50.40
2539;DHT22;1280;49.760;9.664;2023-07-13T13:28:15;26.00;50.60
2539;DHT22;1280;49.760;9.664;2023-07-13T13:30:45;26.00;50.30
2539;DHT22;1280;49.760;9.664;2023-07-13T13:33:15;25.90;50.30
2539;DHT22;1280;49.760;9.664;2023-07-13T13:35:44;26.00;50.20
2539;DHT22;1280;49.760;9.664;2023-07-13T13:38:13;26.00;50.40
2539;DHT22;1280;49.760;9.664;2023-07-13T13:40:43;26.10;50.60
2539;DHT22;1280;49.760;9.664;2023-07-13T13:43:15;26.20;50.40
2539;DHT22;1280;49.760;9.664;2023-07-13T13:45:45;26.30;50.20
2539;DHT22;1280;49.760;9.664;2023-07-13T13:48:15;26.30;50.20
2539;DHT22;1280;49.760;9.664;2023-07-13T13:50:46;26.30;50.10
2539;DHT22;1280;49.760;9.664;2023-07-13T13:53:14;26.30;50.00
2539;DHT22;1280;49.760;9.664;2023-07-13T13:55:42;26.20;49.90
2539;DHT22;1280;49.760;9.664;2023-07-13T13:58:10;26.20;49.90
2539;DHT22;1280;49.760;9.664;2023-07-13T14:00:39;26.10;50.00
2539;DHT22;1280;49.760;9.664;2023-07-13T14:03:14;26.10;50.10
2539;DHT22;1280;49.760;9.664;2023-07-13T14:05:42;26.10;50.10
2539;DHT22;1280;49.760;9.664;2023-07-13T14:08:14;26.20;50.00
2539;DHT22;1280;49.760;9.664;2023-07-13T14:10:44;26.30;50.00
2539;DHT22;1280;49.760;9.664;2023-07-13T14:13:16;26.30;49.80
2539;DHT22;1280;49.760;9.664;2023-07-13T14:15:45;26.20;49.50
2539;DHT22;1280;49.760;9.664;2023-07-13T14:18:14;26.20;49.50
2539;DHT22;1280;49.760;9.664;2023-07-13T14:20:45;26.20;49.50
2539;DHT22;1280;49.760;9.664;2023-07-13T14:23:16;26.20;49.50
2539;DHT22;1280;49.760;9.664;2023-07-13T14:25:45;26.30;49.70
2539;DHT22;1280;49.760;9.664;2023-07-13T14:28:22;26.30;49.70
2539;DHT22;1280;49.760;9.664;2023-07-13T14:30:51;26.40;49.70
2539;DHT22;1280;49.760;9.664;2023-07-13T14:33:21;26.50;49.70
2539;DHT22;1280;49.760;9.664;2023-07-13T14:35:49;26.50;49.40
2539;DHT22;1280;49.760;9.664;2023-07-13T14:38:21;26.60;49.50
2539;DHT22;1280;49.760;9.664;2023-07-13T14:40:49;26.50;49.40
2539;DHT22;1280;49.760;9.664;2023-07-13T14:43:17;26.50;49.40
2539;DHT22;1280;49.760;9.664;2023-07-13T14:45:47;26.50;49.30
2539;DHT22;1280;49.760;9.664;2023-07-13T14:48:17;26.50;49.30
2539;DHT22;1280;49.760;9.664;2023-07-13T14:50:47;26.60;49.20
2539;DHT22;1280;49.760;9.664;2023-07-13T14:53:15;26.50;48.70
2539;DHT22;1280;49.760;9.664;2023-07-13T14:55:45;26.40;48.80
2539;DHT22;1280;49.760;9.664;2023-07-13T14:58:13;26.40;48.50
2539;DHT22;1280;49.760;9.664;2023-07-13T15:00:41;26.40;48.70
2539;DHT22;1280;49.760;9.664;2023-07-13T15:03:17;26.30;48.80
2539;DHT22;1280;49.760;9.664;2023-07-13T15:05:46;26.30;48.80
2539;DHT22;1280;49.760;9.664;2023-07-13T15:08:15;26.20;48.90
2539;DHT22;1280;49.760;9.664;2023-07-13T15:10:44;26.30;49.00
2539;DHT22;1280;49.760;9.664;2023-07-13T15:13:14;26.30;48.90
2539;DHT22;1280;49.760;9.664;2023-07-13T15:15:45;26.40;49.00
2539;DHT22;1280;49.760;9.664;2023-07-13T15:18:15;26.40;48.80
2539;DHT22;1280;49.760;9.664;2023-07-13T15:20:45;26.40;48.90
2539;DHT22;1280;49.760;9.664;2023-07-13T15:23:15;26.30;48.90
2539;DHT22;1280;49.760;9.664;2023-07-13T15:25:45;26.30;48.90
2539;DHT22;1280;49.760;9.664;2023-07-13T15:28:14;26.40;48.90
2539;DHT22;1280;49.760;9.664;2023-07-13T15:30:43;26.30;48.90
2539;DHT22;1280;49.760;9.664;2023-07-13T15:33:14;26.40;49.20
2539;DHT22;1280;49.760;9.664;2023-07-13T15:35:44;26.40;49.20
2539;DHT22;1280;49.760;9.664;2023-07-13T15:38:14;26.50;49.30
2539;DHT22;1280;49.760;9.664;2023-07-13T15:40:43;26.60;49.30
2539;DHT22;1280;49.760;9.664;2023-07-13T15:43:13;26.60;49.10
2539;DHT22;1280;49.760;9.664;2023-07-13T15:45:42;26.60;49.00
2539;DHT22;1280;49.760;9.664;2023-07-13T15:48:15;26.60;49.20
2539;DHT22;1280;49.760;9.664;2023-07-13T15:50:46;26.60;49.20
2539;DHT22;1280;49.760;9.664;2023-07-13T15:53:18;26.60;49.20
2539;DHT22;1280;49.760;9.664;2023-07-13T15:55:47;26.50;49.20
2539;DHT22;1280;49.760;9.664;2023-07-13T15:58:16;26.40;49.20
2539;DHT22;1280;49.760;9.664;2023-07-13T16:00:44;26.40;49.20
2539;DHT22;1280;49.760;9.664;2023-07-13T16:03:12;26.30;49.10
2539;DHT22;1280;49.760;9.664;2023-07-13T16:05:41;26.30;49.10
2539;DHT22;1280;49.760;9.664;2023-07-13T16:08:18;26.30;49.20
2539;DHT22;1280;49.760;9.664;2023-07-13T16:10:48;26.40;49.40
2539;DHT22;1280;49.760;9.664;2023-07-13T16:13:20;26.40;49.50
2539;DHT22;1280;49.760;9.664;2023-07-13T16:15:51;26.50;49.30
2539;DHT22;1280;49.760;9.664;2023-07-13T16:18:20;26.50;49.30
2539;DHT22;1280;49.760;9.664;2023-07-13T16:20:51;26.50;49.30
2539;DHT22;1280;49.760;9.664;2023-07-13T16:23:20;26.50;49.20
2539;DHT22;1280;49.760;9.664;2023-07-13T16:25:48;26.40;49.20
2539;DHT22;1280;49.760;9.664;2023-07-13T16:28:18;26.40;49.10
2539;DHT22;1280;49.760;9.664;2023-07-13T16:30:52;26.50;49.20
2539;DHT22;1280;49.760;9.664;2023-07-13T16:33:22;26.50;49.20